Portada
METAR-TAF:

METAR-TAF

Aeropuertos :

Guelmim, Marruecos

latitud: 29-01-00N, longitud: 10-04-04W, altitud: 301 m

Observación

El informe se hizo hace 25 minutos, a las 03:00 UTC
Viento 3 kt del sur-suroeste
Temperatura 19°C
Humedad 94%
Presión 1013 hPa
Visibilidad: 2000 m
Cielo nuboso a una altura de 400 ft
neblina,

METAR: GMAG 230300Z AUTO 20003KT 2000 BR BKN004 19/18 Q1013

Hora: 04:25 (03:25 UTC)

Pronóstico

El informe se hizo hace 4 horas y 25 minutos, a las 23:00 UTC
Pronóstico válido del 23 a las 00 UTC al 24 a las 06 UTC
Viento 6 kt del oeste-suroeste
Visibilidad: 3000 m
Cielo cubierto a una altura de 800 ft
neblina
Evolucionando progresivamente
del 23 a las 07 UTC al 23 a las 09 UTC
Visibilidad: 6000 m
Escasas nubes a una altura de 2300 ft

TAF: GMAG 222300Z 2300/2406 24006KT 3000 BR OVC008 BECMG 2307/2309 6000 NSW FEW023

Observaciones y pronósticos meteorológicos de más de 4000 aeropuertos (mensajes METAR y TAF).

Los puntos amarillos y rojos representan las estaciones disponibles.

Ponga el ratón en el punto deseado para ver el nombre de la estación.

Haga clic para ver las observaciones y los pronósticos meteorológicos.

Para cambiar el mapa : haga clic en los botones verdes con una cruz de color negro para hacer un zoom, en el botón verde con un guión para alejar o en las flechas verdes para mapas adyacentes.


METAR-TAF: